Hovedside
METAR-TAF:

METAR-TAF

Lufthavner :

Bagdad, Irak

breddegrad: 33-15-45N, lengdegrad: 44-14-04E, høyde over havet: 35 m

Gjeldene værobservasjon

Denne rapporten ble laget for 35 minutter siden, klokken 08:00 UTC
Vind 8 kt fra Vest-nordvest
Temperatur 24°C
Luftfuktighet 36%
Trykk 1018 hPa
Sikt 10 km eller mer
ingen skyer under 1500 m og ingen bygeskyer

METAR: ORBI 130800Z 29008KT CAVOK 24/08 Q1018 NOSIG

Tid: 11:35 (08:35 UTC)

Varsel

Denne rapporten ble laget for 4 timer og 35 minutter siden, klokken 04:00 UTC
Varsel gyldig fra 13. klokken 06 UTC til 14. klokken 06 UTC
Vind 3 kt fra skiftende retning
Sikt: 7000 m
Spredte skyer i en høyde av 4000 ft
Spredte skyer i en høyde av 7000 ft

TAF: ORBI 130400Z 1306/1406 VRB03KT 7000 SCT040 SCT070

Værobservasjoner og værvarsel for over 4000 flyplasser (METAR- og TAF-rapporter).

Tilgjengelige stasjoner er representert av de røde og gule prikkene på kartet.

Hold musepekeren over prikken for å se navnet på stasjonen.

Klikk så for å se værobservasjoner og -varsler.

For å forandre kartet kan du klikke på den grønne knappen med svart kryss for å zoome inn, på den grønne knappen med strek for å zoome ut, eller på de grønne pilene for å se tilstøtende kart.


METAR-TAF: